• Join FlightAware (Why Join?)
  • Login
  • US Flag 
05:32PM EDT


 

Airport Tracker/Info


-or-


 

Live Flight TrackerFlight Track Log ✈ N1125A ✈ 28-Mar-2014 ✈ KHPN - KMVC

Flight Track Log - Related Links

Times and Time Zones

All times are in EDT time to prevent confusion due to time zone crossing. See the N1125A flight status page for this flight to view local times or setup timezone preferences in your user account.

Time Position Orientation Groundspeed Altitude Reporting Facility
EDT Latitude Longitude Course Direction KTS MPH feet Rate Location/Type
05:57PM 41.0333 -73.7667 252° West 194 223 3,400  Level New York TRACON
05:58PM 41.0167 -73.8500 255° West 225 259 6,700 2,940 Climbing New York TRACON
05:59PM 40.9667 -73.9000 217° Southwest 262 302 9,300 2,280 Climbing New York TRACON
06:00PM 40.9000 -73.9667 217° Southwest 282 325 11,300 1,800 Climbing New York TRACON
06:01PM 40.8500 -74.0667 237° Southwest 292 336 12,900 1,380 Climbing New York TRACON
06:03PM 40.7908 -74.2028 240° Southwest 304 350 15,000 840 Climbing New York Center
06:04PM 40.7356 -74.3178 238° Southwest 331 381 15,200 600 Climbing New York Center
06:05PM 40.6806 -74.4078 231° Southwest 349 402 16,200 1,200 Climbing New York Center
06:06PM 40.6125 -74.5189 231° Southwest 354 407 17,700 1,320 Climbing New York Center
06:07PM 40.5575 -74.6117 232° Southwest 361 415 18,900 1,440 Climbing New York Center
06:08PM 40.4869 -74.7250 231° Southwest 366 421 20,600 1,620 Climbing New York Center
06:09PM 40.4272 -74.8278 233° Southwest 366 421 22,200 1,500 Climbing New York Center
06:10PM 40.3675 -74.9306 233° Southwest 366 421 23,700 1,560 Climbing New York Center
06:11PM 40.3075 -75.0306 232° Southwest 366 421 25,400 1,560 Climbing New York Center
06:12PM 40.2456 -75.1328 232° Southwest 366 421 26,900 1,380 Climbing New York Center
06:13PM 40.1856 -75.2322 232° Southwest 360 414 28,200 1,320 Climbing New York Center
06:14PM 40.1275 -75.3317 233° Southwest 360 414 29,600 1,440 Climbing New York Center
06:15PM 40.0694 -75.4281 232° Southwest 360 414 31,100 1,440 Climbing New York Center
06:16PM 40.0139 -75.5167 231° Southwest 348 400 32,500 1,200 Climbing New York Center
06:17PM 39.9622 -75.6053 233° Southwest 327 376 33,500 900 Climbing New York Center
06:18PM 39.9089 -75.6908 231° Southwest 320 368 34,300 720 Climbing New York Center
06:20PM 39.8050 -75.8589 231° Southwest 316 364 35,700 540 Climbing Washington Center
06:21PM 39.7486 -75.9450 230° Southwest 316 364 36,000 120 Climbing Washington Center
06:22PM 39.6919 -76.0339 230° Southwest 316 364 36,000  Level Washington Center
06:23PM 39.6333 -76.1250 230° Southwest 329 379 36,000  Level Washington Center
06:24PM 39.5767 -76.2189 232° Southwest 334 384 36,000  Level Washington Center
06:25PM 39.5178 -76.3125 231° Southwest 339 390 36,000  Level Washington Center
06:26PM 39.4525 -76.4058 228° Southwest 339 390 36,000  Level Washington Center
06:27PM 39.3914 -76.5044 231° Southwest 345 397 36,000  Level Washington Center
06:28PM 39.3281 -76.5978 229° Southwest 350 403 36,000  Level Washington Center
06:29PM 39.2669 -76.6961 231° Southwest 350 403 36,000  Level Washington Center
06:30PM 39.2033 -76.7917 229° Southwest 350 403 36,000  Level Washington Center
06:31PM 39.1442 -76.8869 231° Southwest 350 403 36,000  Level Washington Center
06:32PM 39.0825 -76.9819 230° Southwest 350 403 36,000  Level Washington Center
06:33PM 39.0128 -77.0742 226° Southwest 350 403 36,000  Level Washington Center
06:34PM 38.9344 -77.1553 219° Southwest 360 414 36,000  Level Washington Center
06:35PM 38.8669 -77.2286 220° Southwest 372 428 36,000  Level Washington Center
06:36PM 38.7928 -77.3150 222° Southwest 372 428 36,000  Level Washington Center
06:37PM 38.7164 -77.3983 220° Southwest 367 422 36,000  Level Washington Center
06:38PM 38.6400 -77.4814 220° Southwest 367 422 36,000  Level Washington Center
06:39PM 38.5636 -77.5644 220° Southwest 367 422 36,000  Level Washington Center
06:40PM 38.4850 -77.6472 220° Southwest 367 422 36,000  Level Washington Center
06:41PM 38.4064 -77.7325 220° Southwest 367 422 36,000  Level Washington Center
06:42PM 38.3319 -77.8125 220° Southwest 367 422 36,000  Level Washington Center
06:43PM 38.2556 -77.8947 220° Southwest 367 422 36,000  Level Washington Center
06:44PM 38.1767 -77.9794 220° Southwest 367 422 36,000  Level Washington Center
06:45PM 38.1000 -78.0614 220° Southwest 367 422 36,000  Level Washington Center
06:46PM 38.0208 -78.1458 220° Southwest 367 422 36,000  Level Washington Center
06:47PM 37.9564 -78.2411 229° Southwest 364 419 36,000  Level Washington Center
06:48PM 37.8875 -78.3386 228° Southwest 369 425 36,000  Level Washington Center
06:49PM 37.8203 -78.4389 230° Southwest 375 432 36,000  Level Washington Center
06:50PM 37.7428 -78.5461 228° Southwest 375 432 36,000  Level Washington Center
06:51PM 37.6756 -78.6433 229° Southwest 375 432 36,000  Level Washington Center
06:52PM 37.6064 -78.7400 228° Southwest 375 432 36,000  Level Washington Center
06:53PM 37.5369 -78.8394 229° Southwest 375 432 36,000  Level Washington Center
06:54PM 37.4675 -78.9386 229° Southwest 375 432 36,000  Level Washington Center
06:55PM 37.4025 -79.0244 226° Southwest 375 432 36,000  Level Washington Center
06:56PM 37.3328 -79.1233 228° Southwest 375 432 36,000  Level Washington Center
06:58PM 37.1872 -79.3200 227° Southwest 385 443 36,000  Level Washington Center
06:59PM 37.1133 -79.4128 225° Southwest 385 443 36,000  Level Washington Center
07:00PM 37.0394 -79.5053 225° Southwest 385 443 36,000  Level Washington Center
07:01PM 36.9567 -79.6103 225° Southwest 390 449 36,000  Level Washington Center
07:02PM 36.8825 -79.7025 225° Southwest 390 449 36,000  Level Washington Center
07:03PM 36.8083 -79.7944 225° Southwest 390 449 36,000  Level Washington Center
07:05PM 36.6783 -79.9517 224° Southwest 371 427 36,000  Level Atlanta Center
07:06PM 36.6044 -80.0433 225° Southwest 371 427 36,000  Level Atlanta Center
07:07PM 36.5322 -80.1347 225° Southwest 371 427 36,000  Level Atlanta Center
07:08PM 36.4661 -80.2206 226° Southwest 376 433 36,000  Level Atlanta Center
07:09PM 36.4044 -80.3192 232° Southwest 376 433 36,000  Level Atlanta Center
07:10PM 36.3408 -80.4225 233° Southwest 376 433 36,000  Level Atlanta Center
07:11PM 36.2747 -80.5208 230° Southwest 376 433 36,000  Level Atlanta Center
07:12PM 36.2150 -80.6186 233° Southwest 376 433 36,000  Level Atlanta Center
07:13PM 36.1531 -80.7164 232° Southwest 376 433 36,000  Level Atlanta Center
07:14PM 36.0889 -80.8167 232° Southwest 376 433 36,000  Level Atlanta Center
07:15PM 36.0247 -80.9167 232° Southwest 371 427 36,000  Level Atlanta Center
07:16PM 35.9625 -81.0142 232° Southwest 371 427 36,000  Level Atlanta Center
07:17PM 35.9003 -81.1111 232° Southwest 371 427 36,000  Level Atlanta Center
07:18PM 35.8358 -81.2133 232° Southwest 376 433 36,000  Level Atlanta Center
07:19PM 35.7736 -81.3128 232° Southwest 371 427 36,000  Level Atlanta Center
07:20PM 35.7008 -81.4228 231° Southwest 376 433 36,000  Level Atlanta Center
07:21PM 35.6361 -81.5192 230° Southwest 376 433 36,000  Level Atlanta Center
07:22PM 35.5692 -81.6158 230° Southwest 376 433 36,000  Level Atlanta Center
07:23PM 35.5044 -81.7147 231° Southwest 376 433 36,000  Level Atlanta Center
07:24PM 35.4394 -81.8133 231° Southwest 376 433 36,000  Level Atlanta Center
07:25PM 35.3764 -81.9094 231° Southwest 376 433 36,000  Level Atlanta Center
07:26PM 35.3114 -82.0103 232° Southwest 376 433 36,000  Level Atlanta Center
07:27PM 35.2461 -82.1033 229° Southwest 376 433 36,000  Level Atlanta Center
07:28PM 35.1808 -82.1989 230° Southwest 376 433 36,000  Level Atlanta Center
07:29PM 35.1175 -82.2944 231° Southwest 370 426 36,000  Level Atlanta Center
07:30PM 35.0519 -82.3869 229° Southwest 370 426 36,000  Level Atlanta Center
07:31PM 34.9928 -82.4769 231° Southwest 376 433 36,000  Level Atlanta Center
07:32PM 34.9292 -82.5744 232° Southwest 376 433 36,000  Level Atlanta Center
07:33PM 34.8636 -82.6717 231° Southwest 370 426 36,000  Level Atlanta Center
07:34PM 34.7978 -82.7664 230° Southwest 370 426 36,000  Level Atlanta Center
07:35PM 34.7319 -82.8583 229° Southwest 370 426 36,000  Level Atlanta Center
07:36PM 34.6597 -82.9556 228° Southwest 375 432 36,000  Level Atlanta Center
07:37PM 34.5917 -83.0497 229° Southwest 380 437 36,000  Level Atlanta Center
07:38PM 34.5297 -83.1486 233° Southwest 380 437 36,000  Level Atlanta Center
07:39PM 34.4617 -83.2428 229° Southwest 380 437 36,000  Level Atlanta Center
07:40PM 34.3956 -83.3414 231° Southwest 385 443 36,000  Level Atlanta Center
07:41PM 34.3292 -83.4400 231° Southwest 385 443 36,000  Level Atlanta Center
07:42PM 34.2544 -83.5461 230° Southwest 385 443 36,000  Level Atlanta Center
07:43PM 34.1861 -83.6444 230° Southwest 385 443 36,000  Level Atlanta Center
07:44PM 34.1194 -83.7403 230° Southwest 385 443 36,000  Level Atlanta Center
07:45PM 34.0508 -83.8383 230° Southwest 385 443 36,000  Level Atlanta Center
07:46PM 33.9819 -83.9336 229° Southwest 385 443 36,000  Level Atlanta Center
07:47PM 33.9153 -84.0314 231° Southwest 385 443 36,000 -60 Level Atlanta Center
07:48PM 33.8444 -84.1289 229° Southwest 385 443 35,900 -420 Descending Atlanta Center
07:49PM 33.7753 -84.2314 231° Southwest 393 452 35,200 -480 Descending Atlanta Center
07:50PM 33.7064 -84.3258 229° Southwest 393 452 35,000 -600 Descending Atlanta Center
07:51PM 33.6331 -84.4281 229° Southwest 398 458 34,100 -540 Descending Atlanta Center
07:52PM 33.5700 -84.5175 230° Southwest 398 458 34,000 -60 Descending Atlanta Center
07:53PM 33.4944 -84.6242 230° Southwest 398 458 34,000  Level Atlanta Center
07:54PM 33.4250 -84.7183 229° Southwest 388 447 34,000  Level Atlanta Center
07:55PM 33.3578 -84.8147 230° Southwest 383 441 34,000  Level Atlanta Center
07:56PM 33.2881 -84.9111 229° Southwest 383 441 34,000  Level Atlanta Center
07:57PM 33.2206 -85.0047 229° Southwest 383 441 34,000  Level Atlanta Center
07:58PM 33.1531 -85.1008 230° Southwest 383 441 34,000  Level Atlanta Center
07:59PM 33.0833 -85.1967 229° Southwest 383 441 34,000  Level Atlanta Center
08:00PM 33.0178 -85.2750 225° Southwest 377 434 34,000  Level Atlanta Center
08:01PM 32.9481 -85.3731 230° Southwest 377 434 34,000  Level Atlanta Center
08:02PM 32.8758 -85.4683 228° Southwest 387 445 34,000 -420 Level Atlanta Center
08:03PM 32.8058 -85.5686 230° Southwest 387 445 33,200 -960 Descending Atlanta Center
08:04PM 32.7314 -85.6686 229° Southwest 392 451 32,100 -1,140 Descending Atlanta Center
08:05PM 32.6572 -85.7633 227° Southwest 398 458 31,000 -1,200 Descending Atlanta Center
08:06PM 32.5825 -85.8681 230° Southwest 403 464 29,800 -1,560 Descending Atlanta Center
08:07PM 32.4931 -85.9819 227° Southwest 403 464 27,900 -1,800 Descending Atlanta Center
08:08PM 32.4206 -86.0811 229° Southwest 414 476 26,200 -1,740 Descending Atlanta Center
08:09PM 32.3417 -86.1850 228° Southwest 419 482 24,500 -1,140 Descending Atlanta Center
08:10PM 32.2667 -86.2889 230° Southwest 426 490 24,000 -1,200 Descending Atlanta Center
08:11PM 32.1897 -86.3950 229° Southwest 426 490 22,200 -1,800 Descending Atlanta Center
08:12PM 32.1186 -86.4961 230° Southwest 420 483 20,400 -2,580 Descending Atlanta Center
08:13PM 32.0503 -86.5775 225° Southwest 410 472 17,100 -3,180 Descending Atlanta Center
08:14PM 31.9667 -86.6853 228° Southwest 405 466 14,100 -2,880 Descending Atlanta Center
08:15PM 31.8936 -86.7808 228° Southwest 405 466 11,400 -2,460 Descending Atlanta Center
08:16PM 31.8269 -86.8694 228° Southwest 398 458 9,200 -2,100 Descending Atlanta Center
08:17PM 31.7622 -86.9553 228° Southwest 375 432 7,200 -2,040 Descending Atlanta Center
08:18PM 31.7019 -87.0386 230° Southwest 355 409 5,200 -2,040 Descending Atlanta Center